NFTL/HPA METAR and TAF weather

Enter ICAO airport designator
Station Type Date Time Source
NFTL METAR 2019/02/16 03:00 UTC NOAA

NFTL 160300Z VRB02KT 9999 FEW018TCU 30/25 Q1008


Station Type Date Time Source
NFTL Decoded METAR 2019/02/16 03:00 UTC NOAA

Haapai, Tonga (NFTL) 19-48S 174-21W 3M
Feb 15, 2019 - 10:00 PM EST / 2019.02.16 0300 UTC
Wind: Variable at 2 MPH (2 KT):0
Visibility: greater than 7 mile(s):0
Sky conditions: mostly clear
Weather: Towering cumulus clouds observed
Temperature: 86 F (30 C)
Heat index: 96.8 F (36.0 C):1
Dew Point: 77 F (25 C)
Relative Humidity: 74%
Pressure (altimeter): 29.77 in. Hg (1008 hPa)
ob: NFTL 160300Z VRB02KT 9999 FEW018TCU 30/25 Q1008
cycle: 3

Station Type Date Time Source
NFTL TAF 2018/02/21 17:19 UTC NOAA

TAF NFTL 211605Z 2117/2208 12010KT 9999 SCT018


Example: see airport list